Tiempo atmosférico en la estación meteorológica de Castell Del Ferro, Granada (235 m.)



Fecha
DESCASC
Temp. máxima en grados centígrados (hora)
DESCASC
Temp. mínima en grados centígrados (hora)
DESCASC
Temp. media en grados centígrados
DESCASC
Racha de viento máxima en m/sg (hora)
DESCASC
Velocidad máxima media en intervalos de 10 minutos(hora)
DESCASC
Precipitaciones diarias en mm
DESCASC
Precipitaciones de 00:00 a 06:00 en mm
DESCASC
Precipitaciones de 06:00 a 12:00 en mm
DESCASC
Precipitaciones de 12:00 a 18:00 en mm
DESCASC
Precipitaciones de 18:00 a 24:00 en mm
DESCASC

Gráficas

Temp. máximas Temp. mínimas Temp. medias Precipitaciones Rachas de viento máximas Velocidades máximas media en intervalos de 10 minutos

Datos horarios

Fecha y hora oficial Temperatura (ºC) Velocidad del viento (km/h) Dirección del viento Racha (km/h) Dirección de racha Precipitación (mm) Presión (hPa) Tendencia (hPa) Humedad (%)
2019-06-20 23:00:00 -- -- -- -- -- -- -- -- --
2019-06-20 22:00:00 -- 8 Norte 47 Oeste 0 -- -- 46
2019-06-20 21:00:00 -- 33 Oeste 55 Oeste 0 -- -- 47
2019-06-20 20:00:00 -- 37 Oeste 59 Oeste 0 -- -- 46
2019-06-20 19:00:00 -- 36 Oeste 60 Oeste 0 -- -- 45
2019-06-20 18:00:00 -- 38 Oeste 59 Oeste 0 -- -- 45
2019-06-20 17:00:00 -- 33 Oeste 56 Oeste 0 -- -- 44
2019-06-20 16:00:00 -- 34 Oeste 57 Oeste 0 -- -- 44
2019-06-20 15:00:00 -- 32 Oeste 50 Oeste 0 -- -- 42
2019-06-20 14:00:00 -- 28 Oeste 42 Oeste 0 -- -- 35
2019-06-20 13:00:00 -- 17 Oeste 31 Oeste 0 -- -- 27
2019-06-20 12:00:00 -- 6 Este 13 Este 0 -- -- 39
2019-06-20 11:00:00 -- 7 Este 13 Este 0 -- -- 57
2019-06-20 10:00:00 -- 7 Este 11 Este 0 -- -- 64
2019-06-20 09:00:00 -- 5 Este 9 Este 0 -- -- 66
2019-06-20 08:00:00 -- 3 Norte 9 Norte 0 -- -- 61
2019-06-20 07:00:00 -- 2 Sur 13 Noroeste 0 -- -- 42
2019-06-20 06:00:00 -- 0 Calma 8 Noroeste 0 -- -- 46
2019-06-20 05:00:00 -- 5 Sudeste 8 Sur 0 -- -- 69
2019-06-20 04:00:00 -- 6 Sudoeste 17 Sudeste 0 -- -- 79
2019-06-20 03:00:00 -- 5 Noroeste 9 Noroeste 0 -- -- 53
2019-06-20 02:00:00 -- 2 Norte 13 Sur 0 -- -- 50
2019-06-20 01:00:00 -- 2 Sur 9 Noroeste 0 -- -- 48
2019-06-20 00:00:00 -- 3 Oeste 9 Sudoeste 0 -- -- 39
2019-06-19 23:00:00 -- 5 Nordeste 31 Oeste 0 -- -- 39
2019-06-19 22:00:00 -- 19 Oeste 39 Oeste 0 -- -- 38
2019-06-19 21:00:00 -- 14 Oeste 42 Oeste 0 -- -- 35
2019-06-19 20:00:00 -- 15 Oeste 37 Oeste 0 -- -- 32
2019-06-19 19:00:00 -- 13 Oeste 36 Noroeste 0 -- -- 31
2019-06-19 18:00:00 -- 22 Oeste 40 Oeste 0 -- -- 29
2019-06-19 17:00:00 -- 13 Noroeste 23 Noroeste 0 -- -- 21
2019-06-19 16:00:00 -- 6 Este 15 Sudeste 0 -- -- 43
2019-06-19 15:00:00 -- 10 Este 15 Este 0 -- -- 51
2019-06-19 14:00:00 -- 10 Este 19 Nordeste 0 -- -- 55
2019-06-19 13:00:00 -- 9 Este 17 Este 0 -- -- 59
2019-06-19 12:00:00 -- 8 Este 14 Este 0 -- -- 51
2019-06-19 11:00:00 -- 8 Este 12 Este 0 -- -- 52
2019-06-19 10:00:00 -- 9 Sudeste 14 Sudeste 0 -- -- 55
2019-06-19 09:00:00 -- 2 Sudoeste 6 Nordeste 0 -- -- 59
2019-06-19 08:00:00 -- 0 Calma 5 Oeste 0 -- -- 72
2019-06-19 07:00:00 -- 0 Calma 12 Oeste 0 -- -- 69
2019-06-19 06:00:00 -- 3 Oeste 12 Sudeste 0 -- -- 72
2019-06-19 05:00:00 -- 5 Sur 15 Sudeste 0 -- -- 75
2019-06-19 04:00:00 -- 8 Sur 15 Sudeste 0 -- -- 83
2019-06-19 03:00:00 -- 8 Noroeste 10 Noroeste 0 -- -- 60
2019-06-19 02:00:00 -- 3 Sur 11 Sudeste 0 -- -- 54
2019-06-19 01:00:00 -- 8 Sur 21 Sur 0 -- -- 53
2019-06-19 00:00:00 -- 20 Oeste 44 Oeste 0 -- -- 36
2019-06-18 23:00:00 -- 24 Oeste 39 Oeste 0 -- -- 32
2019-06-18 22:00:00 -- 6 Este 17 Oeste 0 -- -- 32
2019-06-18 21:00:00 -- 5 Nordeste 16 Norte 0 -- -- 34
2019-06-18 20:00:00 -- 3 Nordeste 8 Nordeste 0 -- -- 31
2019-06-18 19:00:00 -- -- -- -- -- -- -- -- --
2019-06-18 18:00:00 -- 9 Sudeste 15 Sudeste 0 -- -- 57
2019-06-18 17:00:00 -- 10 Sudeste 17 Sudeste 0 -- -- 66
2019-06-18 16:00:00 -- 8 Este 17 Este 0 -- -- 63
2019-06-18 15:00:00 -- 9 Nordeste 19 Este 0 -- -- 57
2019-06-18 14:00:00 -- 13 Este 24 Nordeste 0 -- -- 54
2019-06-18 13:00:00 -- 14 Este 21 Este 0 -- -- 56
2019-06-18 12:00:00 -- 14 Nordeste 23 Este 0 -- -- 61
2019-06-18 11:00:00 -- 12 Sudeste 19 Este 0 -- -- 64
2019-06-18 10:00:00 -- 6 Este 14 Este 0 -- -- 65
2019-06-18 09:00:00 -- 5 Este 9 Este 0 -- -- 57
2019-06-18 08:00:00 -- 7 Sudeste 11 Sudeste 0 -- -- 58
2019-06-18 07:00:00 -- 3 Sudoeste 8 Sudeste 0 -- -- 55
2019-06-18 06:00:00 -- 2 Sur 5 Oeste 0 -- -- 55
2019-06-18 05:00:00 -- 0 Calma 5 Oeste 0 -- -- 55
2019-06-18 04:00:00 -- 3 Oeste 4 Sudoeste 0 -- -- 52
2019-06-18 03:00:00 -- 2 Oeste 4 Oeste 0 -- -- 51
2019-06-18 02:00:00 -- 3 Sudoeste 10 Oeste 0 -- -- 54
2019-06-18 01:00:00 -- 0 Calma 5 Oeste 0 -- -- 65
2019-06-18 00:00:00 -- 2 Sudoeste 5 Sudoeste 0 -- -- 72
2019-06-17 23:00:00 -- 5 Oeste 6 Oeste 0 -- -- 72
2019-06-17 22:00:00 -- 0 Calma 5 Oeste 0 -- -- 74
2019-06-17 21:00:00 -- 2 Norte 7 Sudeste 0 -- -- 70
2019-06-17 20:00:00 -- 3 Sudeste 8 Este 0 -- -- 67
2019-06-17 19:00:00 -- 4 Este 12 Este 0 -- -- 64
2019-06-17 18:00:00 -- 8 Este 15 Este 0 -- -- 63
2019-06-17 17:00:00 -- 7 Sudeste 15 Nordeste 0 -- -- 61
2019-06-17 16:00:00 -- 9 Nordeste 15 Nordeste 0 -- -- 60
2019-06-17 15:00:00 -- 13 Nordeste 32 Este 0 -- -- 59
2019-06-17 14:00:00 -- 9 Este 22 Este 0 -- -- 67
2019-06-17 13:00:00 -- 14 Este 20 Este 0 -- -- 67
2019-06-17 12:00:00 -- 13 Este 20 Sudeste 0 -- -- 67
2019-06-17 11:00:00 -- 9 Este 16 Este 0 -- -- 69
2019-06-17 10:00:00 -- 9 Sudeste 13 Sudeste 0 -- -- 73
2019-06-17 09:00:00 -- 6 Nordeste 10 Nordeste 0 -- -- 71
2019-06-17 08:00:00 -- 2 Norte 6 Oeste 0 -- -- 82
2019-06-17 07:00:00 -- 3 Oeste 4 Noroeste 0 -- -- 85
2019-06-17 06:00:00 -- 3 Sudoeste 6 Sudoeste 0 -- -- 83
2019-06-17 05:00:00 -- 0 Calma 4 Oeste 0 -- -- 83
2019-06-17 04:00:00 -- 2 Oeste 7 Oeste 0 -- -- 80
2019-06-17 03:00:00 -- 3 Noroeste 6 Oeste 0 -- -- 79
2019-06-17 02:00:00 -- 0 Calma 5 Sudoeste 0 -- -- 76
2019-06-17 01:00:00 -- 0 Calma 4 Oeste 0 -- -- 74
2019-06-17 00:00:00 -- 0 Calma 5 Oeste 0 -- -- 71
2019-06-16 23:00:00 -- 3 Sudeste 5 Oeste 0 -- -- 68
2019-06-16 22:00:00 -- 3 Noroeste 5 Oeste 0 -- -- 71
2019-06-16 21:00:00 -- 3 Norte 15 Oeste 0 -- -- 63
2019-06-16 20:00:00 -- 6 Oeste 14 Sudoeste 0 -- -- 53
2019-06-16 19:00:00 -- 8 Sudeste 16 Sudeste 0 -- -- 41
2019-06-16 18:00:00 -- 9 Sudeste 17 Sudeste 0 -- -- 40
2019-06-16 17:00:00 -- 9 Sudeste 18 Sudeste 0 -- -- 43
2019-06-16 16:00:00 -- 9 Sudeste 20 Sudeste 0 -- -- 44
2019-06-16 15:00:00 -- 8 Este 17 Este 0 -- -- 43
2019-06-16 14:00:00 -- 4 Norte 15 Este 0 -- -- 69
2019-06-16 13:00:00 -- 10 Sudeste 21 Sudeste 0 -- -- 79
2019-06-16 12:00:00 -- 12 Sudeste 17 Sudeste 0 -- -- 69
2019-06-16 11:00:00 -- 8 Sudeste 14 Sudeste 0 -- -- 56
2019-06-16 10:00:00 -- 5 Este 12 Este 0 -- -- 60
2019-06-16 09:00:00 -- 6 Sudeste 11 Sudeste 0 -- -- 67
2019-06-16 08:00:00 -- 5 Sur 8 Sur 0 -- -- 48
2019-06-16 07:00:00 -- 4 Sudoeste 10 Oeste 0 -- -- 48
2019-06-16 06:00:00 -- 4 Oeste 9 Oeste 0 -- -- 52
2019-06-16 05:00:00 -- 2 Oeste 8 Oeste 0 -- -- 62
2019-06-16 04:00:00 -- 3 Sudeste 12 Este 0 -- -- 56
2019-06-16 03:00:00 -- 3 Este 7 Oeste 0 -- -- 52
2019-06-16 02:00:00 -- 3 Oeste 10 Oeste 0 -- -- 59
2019-06-16 01:00:00 -- 0 Calma 4 Noroeste 0 -- -- 68
2019-06-16 00:00:00 -- 0 Calma 8 Oeste 0 -- -- 70
2019-06-15 23:00:00 -- 5 Oeste 9 Oeste 0 -- -- 63
2019-06-15 22:00:00 -- 2 Sur 7 Noroeste 0 -- -- 64
2019-06-15 21:00:00 -- 3 Noroeste 8 Noroeste 0 -- -- 66
2019-06-15 20:00:00 -- 4 Este 9 Este 0 -- -- 65
2019-06-15 19:00:00 -- 5 Este 14 Este 0 -- -- 63
2019-06-15 18:00:00 -- 7 Nordeste 15 Nordeste 0 -- -- 59
2019-06-15 17:00:00 -- 6 Este 18 Este 0 -- -- 61
2019-06-15 16:00:00 -- 9 Este 21 Nordeste 0 -- -- 65
2019-06-15 15:00:00 -- 11 Este 19 Nordeste 0 -- -- 59
2019-06-15 14:00:00 -- 10 Nordeste 19 Este 0 -- -- 58
2019-06-15 13:00:00 -- 7 Nordeste 16 Nordeste 0 -- -- 51
2019-06-15 12:00:00 -- 8 Este 14 Este 0 -- -- 44
2019-06-15 11:00:00 -- 12 Sudeste 16 Sudeste 0 -- -- 43
2019-06-15 10:00:00 -- 6 Este 12 Este 0 -- -- 43
2019-06-15 09:00:00 -- 5 Este 9 Sudeste 0 -- -- 54
2019-06-15 08:00:00 -- 0 Calma 8 Oeste 0 -- -- 44
2019-06-15 07:00:00 -- 4 Oeste 17 Oeste 0 -- -- 44
2019-06-15 06:00:00 -- 8 Oeste 13 Noroeste 0 -- -- 45
2019-06-15 05:00:00 -- 0 Calma 8 Noroeste 0 -- -- 49
2019-06-15 04:00:00 -- 2 Sudoeste 6 Noroeste 0 -- -- 51
2019-06-15 03:00:00 -- 4 Sudeste 18 Noroeste 0 -- -- 53
2019-06-15 02:00:00 -- 9 Norte 28 Noroeste 0 -- -- 37
2019-06-15 01:00:00 -- 13 Noroeste 28 Noroeste 0 -- -- 43
2019-06-15 00:00:00 -- 5 Nordeste 27 Noroeste 0 -- -- 43
2019-06-14 23:00:00 -- 25 Oeste 41 Oeste 0 -- -- 39
2019-06-14 22:00:00 -- 22 Oeste 42 Oeste 0 -- -- 44
2019-06-14 21:00:00 -- 19 Oeste 37 Oeste 0 -- -- 47
2019-06-14 20:00:00 -- 8 Norte 58 Oeste 0 -- -- 51
2019-06-14 19:00:00 -- 28 Oeste 50 Oeste 0 -- -- 49
2019-06-14 18:00:00 -- 27 Oeste 57 Oeste 0 -- -- 52
2019-06-14 17:00:00 -- 27 Oeste 54 Oeste 0 -- -- 54
2019-06-14 16:00:00 -- 29 Oeste 58 Oeste 0 -- -- 54
2019-06-14 15:00:00 -- 22 Oeste 41 Oeste 0 -- -- 55
2019-06-14 14:00:00 -- 19 Noroeste 42 Oeste 0 -- -- 52
2019-06-14 13:00:00 -- 22 Oeste 42 Oeste 0 -- -- 56
2019-06-14 12:00:00 -- 26 Oeste 48 Oeste 0 -- -- 60
2019-06-14 11:00:00 -- 30 Oeste 49 Oeste 0 -- -- 63
2019-06-14 10:00:00 -- 28 Oeste 46 Oeste 0 -- -- 68
2019-06-14 09:00:00 -- 25 Oeste 46 Oeste 0 -- -- 78
2019-06-14 08:00:00 -- 28 Oeste 46 Oeste 0 -- -- 86
2019-06-14 07:00:00 -- 23 Oeste 47 Oeste 0 -- -- 88
2019-06-14 06:00:00 -- 29 Oeste 45 Oeste 0 -- -- 89
2019-06-14 05:00:00 -- 21 Oeste 36 Oeste 0 -- -- 78
2019-06-14 04:00:00 -- 7 Sur 42 Noroeste 0 -- -- 68
2019-06-14 03:00:00 -- 18 Noroeste 31 Noroeste 0 -- -- 82
2019-06-14 02:00:00 -- 14 Oeste 24 Oeste 0 -- -- 82
2019-06-14 01:00:00 -- 4 Sudoeste 14 Sur 0 -- -- 76
2019-06-14 00:00:00 -- 2 Noroeste 4 Sudeste 0 -- -- 76
2019-06-13 23:00:00 -- 2 Nordeste 8 Sudeste 0 -- -- 76
2019-06-13 22:00:00 -- 7 Sudeste 9 Sudeste 0 -- -- 76
2019-06-13 21:00:00 -- 7 Sudeste 12 Sudeste 0 -- -- 74
2019-06-13 20:00:00 -- 6 Este 9 Este 0 -- -- 72
2019-06-13 19:00:00 -- 5 Sudeste 11 Este 0 -- -- 71
2019-06-13 18:00:00 -- 5 Este 13 Este 0 -- -- 72
2019-06-13 17:00:00 -- 5 Este 21 Sudeste 0 -- -- 71
2019-06-13 16:00:00 -- 12 Sudeste 19 Sur 0 -- -- 69
2019-06-13 15:00:00 -- 10 Sudeste 23 Sur 0 -- -- 65
2019-06-13 14:00:00 -- 16 Sudeste 27 Sudeste 0 -- -- 59
2019-06-13 13:00:00 -- 9 Sudeste 26 Sudeste 0 -- -- 55
2019-06-13 12:00:00 -- 12 Sudeste 22 Sudeste 0 -- -- 57
2019-06-13 11:00:00 -- 10 Este 14 Sudeste 0 -- -- 63
2019-06-13 10:00:00 -- 8 Este 12 Este 0 -- -- 64
2019-06-13 09:00:00 -- 3 Norte 10 Sudeste 0 -- -- 76
2019-06-13 08:00:00 -- 2 Oeste 10 Noroeste 0 -- -- 81
2019-06-13 07:00:00 -- 5 Sur 10 Sur 0 -- -- 86
2019-06-13 06:00:00 -- 6 Noroeste 12 Oeste 0 -- -- 88
2019-06-13 05:00:00 -- 4 Sudoeste 12 Oeste 0 -- -- 86
2019-06-13 04:00:00 -- 5 Oeste 8 Sudoeste 0 -- -- 86
2019-06-13 03:00:00 -- 4 Sur 8 Noroeste 0 -- -- 85
2019-06-13 02:00:00 -- 3 Sur 11 Oeste 0 -- -- 83
2019-06-13 01:00:00 -- 3 Oeste 9 Sudeste 0 -- -- 87
2019-06-13 00:00:00 -- 3 Oeste 8 Sur 0 -- -- 87
2019-06-12 23:00:00 -- 4 Este 17 Sudeste 0 -- -- 90
2019-06-12 22:00:00 -- 8 Este 15 Nordeste 0 -- -- 87
2019-06-12 21:00:00 -- 4 Sudeste 11 Este 0 -- -- 84
2019-06-12 20:00:00 -- 5 Este 14 Sudeste 0 -- -- 72
2019-06-12 19:00:00 -- 6 Este 14 Este 0 -- -- 70
2019-06-12 18:00:00 -- 6 Este 20 Este 0 -- -- 72
2019-06-12 17:00:00 -- 13 Este 27 Sudeste 0 -- -- 72
2019-06-12 16:00:00 -- 18 Este 29 Este 0 -- -- 68
2019-06-12 15:00:00 -- 16 Este 25 Este 0 -- -- 66
2019-06-12 14:00:00 -- 13 Este 27 Este 0 -- -- 62
2019-06-12 13:00:00 -- 15 Este 30 Sur 0 -- -- 60
2019-06-12 12:00:00 -- 13 Sudeste 31 Sudeste 0 -- -- 61
2019-06-12 11:00:00 -- 15 Este 26 Este 0 -- -- 60
2019-06-12 10:00:00 -- 15 Este 24 Este 0 -- -- 62
2019-06-12 09:00:00 -- 12 Sudeste 22 Sudeste 0 -- -- 76
2019-06-12 08:00:00 -- 13 Sudeste 22 Este 0 -- -- 84
2019-06-12 07:00:00 -- 9 Sudeste 27 Sudeste 0 -- -- 85
2019-06-12 06:00:00 -- 17 Este 28 Este 0 -- -- 84
2019-06-12 05:00:00 -- 13 Sudeste 28 Sudeste 0 -- -- 85
2019-06-12 04:00:00 -- 13 Sudeste 27 Este 0 -- -- 87
2019-06-12 03:00:00 -- 13 Este 27 Sudeste 0 -- -- 87
2019-06-12 02:00:00 -- 12 Sudeste 22 Sudeste 0 -- -- 87
2019-06-12 01:00:00 -- 15 Este 46 Este 0 -- -- 84
2019-06-12 00:00:00 -- 25 Sudeste 49 Sudeste 0 -- -- 75
2019-06-11 23:00:00 -- 4 Oeste 16 Sur 0 -- -- 56
2019-06-11 22:00:00 -- 9 Sudeste 51 Noroeste 0 -- -- 50
2019-06-11 21:00:00 -- 30 Noroeste 46 Noroeste 0 -- -- 34
2019-06-11 20:00:00 -- 20 Noroeste 59 Oeste 0 -- -- 34
2019-06-11 19:00:00 -- 40 Oeste 65 Oeste 0 -- -- 51
2019-06-11 18:00:00 -- 41 Oeste 70 Oeste 0 -- -- 42
2019-06-11 17:00:00 -- 34 Oeste 60 Oeste 0 -- -- 40
2019-06-11 16:00:00 -- 33 Oeste 54 Oeste 0 -- -- 40
2019-06-11 15:00:00 -- 31 Oeste 56 Oeste 0 -- -- 34
2019-06-11 14:00:00 -- 31 Oeste 54 Oeste 0 -- -- 35
2019-06-11 13:00:00 -- 28 Oeste 46 Oeste 0 -- -- 38
2019-06-11 12:00:00 -- 9 Este 14 Este 0 -- -- 56
2019-06-11 11:00:00 -- 6 Este 16 Este 0 -- -- 64
2019-06-11 10:00:00 -- 6 Sudeste 13 Sudeste 0 -- -- 64
2019-06-11 09:00:00 -- 5 Este 10 Noroeste 0 -- -- 56
2019-06-11 08:00:00 -- 0 Calma 15 Noroeste 0 -- -- 57
2019-06-11 07:00:00 -- 9 Noroeste 17 Oeste 0 -- -- 39
2019-06-11 06:00:00 -- 6 Noroeste 14 Oeste 0 -- -- 41
2019-06-11 05:00:00 -- 6 Oeste 10 Oeste 0 -- -- 48
2019-06-11 04:00:00 -- 0 Calma 13 Oeste 0 -- -- 61
2019-06-11 03:00:00 -- 9 Noroeste 19 Oeste 0 -- -- 34
2019-06-11 02:00:00 -- 12 Oeste 20 Oeste 0 -- -- 32
2019-06-11 01:00:00 -- 4 Oeste 10 Oeste 0 -- -- 36
2019-06-11 00:00:00 -- 4 Sudeste 10 Oeste 0 -- -- 53
2019-06-10 23:00:00 -- 2 Sudoeste 19 Sudeste 0 -- -- 54
2019-06-10 22:00:00 -- 3 Sur 41 Oeste 0 -- -- 45
2019-06-10 21:00:00 -- 28 Oeste 42 Noroeste 0 -- -- 37
2019-06-10 20:00:00 -- 28 Oeste 51 Oeste 0 -- -- 43
2019-06-10 19:00:00 -- 35 Oeste 56 Oeste 0 -- -- 43
2019-06-10 18:00:00 -- 30 Oeste 47 Oeste 0 -- -- 41
2019-06-10 17:00:00 -- 24 Oeste 46 Oeste 0 -- -- 39
2019-06-10 16:00:00 -- 27 Oeste 44 Oeste 0 -- -- 41
2019-06-10 15:00:00 -- 29 Oeste 46 Oeste 0 -- -- 40
2019-06-10 14:00:00 -- 11 Este 21 Nordeste 0 -- -- 29
2019-06-10 13:00:00 -- 13 Nordeste 22 Nordeste 0 -- -- 36
2019-06-10 12:00:00 -- 9 Este 15 Este 0 -- -- 41
2019-06-10 11:00:00 -- 6 Este 15 Este 0 -- -- 38
2019-06-10 10:00:00 -- 10 Sudeste 21 Este 0 -- -- 42
2019-06-10 09:00:00 -- 7 Sudeste 19 Noroeste 0 -- -- 40
2019-06-10 08:00:00 -- 12 Oeste 23 Noroeste 0 -- -- 38
2019-06-10 07:00:00 -- 13 Oeste 27 Noroeste 0 -- -- 39
2019-06-10 06:00:00 -- 14 Noroeste 24 Noroeste 0 -- -- 37
2019-06-10 05:00:00 -- 16 Noroeste 26 Noroeste 0 -- -- 36
2019-06-10 04:00:00 -- 12 Noroeste 20 Noroeste 0 -- -- 32
2019-06-10 03:00:00 -- 4 Oeste 36 Oeste 0 -- -- 31
2019-06-10 02:00:00 -- 23 Noroeste 57 Noroeste 0 -- -- 30
2019-06-10 01:00:00 -- 29 Noroeste 54 Noroeste 0 -- -- 29
2019-06-10 00:00:00 -- 28 Noroeste 46 Oeste 0 -- -- 33
2019-06-09 23:00:00 -- 23 Oeste 40 Oeste 0 -- -- 37
2019-06-09 22:00:00 -- 28 Oeste 50 Oeste 0 -- -- 51
2019-06-09 21:00:00 -- 32 Oeste 55 Oeste 0 -- -- 53
2019-06-09 20:00:00 -- 35 Oeste 54 Oeste 0 -- -- 52
2019-06-09 19:00:00 -- 15 Noroeste 42 Noroeste 0 -- -- 53
2019-06-09 18:00:00 -- 11 Noroeste 31 Oeste 0 -- -- 55
2019-06-09 17:00:00 -- 14 Oeste 41 Oeste 0 -- -- 58
2019-06-09 16:00:00 -- 24 Oeste 47 Oeste 0 -- -- 66
2019-06-09 15:00:00 -- 23 Oeste 41 Oeste 0 -- -- 61
2019-06-09 14:00:00 -- 19 Oeste 42 Oeste 0 -- -- 62
2019-06-09 13:00:00 -- 10 Norte 27 Noroeste 0 -- -- 61
2019-06-09 12:00:00 -- 17 Oeste 30 Oeste 0 -- -- 71
2019-06-09 11:00:00 -- 7 Noroeste 17 Noroeste 0 -- -- 69
2019-06-09 10:00:00 -- 3 Nordeste 21 Sudoeste 0 -- -- 76
2019-06-09 09:00:00 -- 14 Oeste 26 Oeste 0 -- -- 83
2019-06-09 08:00:00 -- 9 Oeste 17 Sudoeste 0 -- -- 87
2019-06-09 07:00:00 -- 8 Sudoeste 16 Sudoeste 0 -- -- 89
2019-06-09 06:00:00 -- 9 Sudoeste 16 Sudoeste 0 -- -- 89
2019-06-09 05:00:00 -- 3 Sudoeste 10 Sudoeste 0 -- -- 89
2019-06-09 04:00:00 -- 6 Sudoeste 11 Sur 0 -- -- 86
2019-06-09 03:00:00 -- 3 Sudeste 8 Sudeste 0 -- -- 86
2019-06-09 02:00:00 -- 5 Sudeste 11 Sudeste 0 -- -- 89
2019-06-09 01:00:00 -- 4 Sudoeste 9 Sudoeste 0 -- -- 86
2019-06-09 00:00:00 -- 5 Sudeste 8 Sudeste 0 -- -- 87
2019-06-08 23:00:00 -- 0 Calma 8 Nordeste 0 -- -- 86
2019-06-08 22:00:00 -- 5 Sudeste 10 Sudeste 0 -- -- 85
2019-06-08 21:00:00 -- 9 Sudeste 18 Este 0 -- -- 84
2019-06-08 20:00:00 -- 11 Este 22 Este 0 -- -- 82
2019-06-08 19:00:00 -- 13 Este 24 Este 0 -- -- 81
2019-06-08 18:00:00 -- 16 Este 24 Este 0 -- -- 75
2019-06-08 17:00:00 -- 12 Este 22 Este 0 -- -- 67
2019-06-08 16:00:00 -- 10 Este 24 Sudeste 0 -- -- 66
2019-06-08 15:00:00 -- 12 Este 25 Sudeste 0 -- -- 65
2019-06-08 14:00:00 -- 13 Sudeste 28 Sudeste 0 -- -- 69
2019-06-08 13:00:00 -- 13 Sudeste 21 Este 0 -- -- 70
2019-06-08 12:00:00 -- 11 Este 21 Este 0 -- -- 72
2019-06-08 11:00:00 -- 8 Este 18 Sudeste 0 -- -- 62
2019-06-08 10:00:00 -- 9 Sudeste 17 Sudeste 0 -- -- 69
2019-06-08 09:00:00 -- 4 Sudeste 15 Sudeste 0 -- -- 70
2019-06-08 08:00:00 -- 3 Sudeste 11 Sur 0 -- -- 60
2019-06-08 07:00:00 -- 3 Sur 9 Sudeste 0 -- -- 66
2019-06-08 06:00:00 -- 5 Sur 9 Sur 0 -- -- 86
2019-06-08 05:00:00 -- 5 Sur 15 Sur 0 -- -- 87
2019-06-08 04:00:00 -- 4 Sur 16 Sudeste 0 -- -- 86
2019-06-08 03:00:00 -- 9 Sudeste 17 Sudeste 0 -- -- 81
2019-06-08 02:00:00 -- 6 Sudeste 15 Sur 0 -- -- 80
2019-06-08 01:00:00 -- 8 Sur 16 Sudeste 0 -- -- 71
2019-06-08 00:00:00 -- 0 Calma 7 Sur 0 -- -- 57
2019-06-07 23:00:00 -- 5 Sudeste 12 Oeste 0 -- -- 52
2019-06-07 22:00:00 -- 3 Oeste 12 Oeste 0 -- -- 48
2019-06-07 21:00:00 -- 5 Oeste 26 Oeste 0 -- -- 41
2019-06-07 20:00:00 -- 13 Oeste 25 Oeste 0 -- -- 38
2019-06-07 19:00:00 -- 10 Oeste 31 Oeste 0 -- -- 41
2019-06-07 18:00:00 -- 18 Noroeste 34 Oeste 0 -- -- 48
2019-06-07 17:00:00 -- 18 Noroeste 42 Oeste 0 -- -- 51
2019-06-07 16:00:00 -- 25 Oeste 42 Oeste 0 -- -- 51
2019-06-07 15:00:00 -- 23 Oeste 41 Oeste 0 -- -- 50
2019-06-07 14:00:00 -- 8 Nordeste 22 Nordeste 0 -- -- 49
2019-06-07 13:00:00 -- 11 Sudeste 23 Este 0 -- -- 57
2019-06-07 12:00:00 -- 9 Este 17 Este 0 -- -- 56
2019-06-07 11:00:00 -- 9 Este 19 Sudeste 0 -- -- 58
2019-06-07 10:00:00 -- 10 Sudeste 19 Sudeste 0 -- -- 60
2019-06-07 09:00:00 -- 13 Sudeste 19 Sudeste 0 -- -- 57
2019-06-07 08:00:00 -- 3 Norte 15 Oeste 0 -- -- 39
2019-06-07 07:00:00 -- 10 Oeste 15 Oeste 0 -- -- 38
2019-06-07 06:00:00 -- 0 Calma 6 Noroeste 0 -- -- 42
2019-06-07 05:00:00 -- 5 Sur 8 Sudeste 0 -- -- 52
2019-06-07 04:00:00 -- 2 Sur 15 Sudeste 0 -- -- 45
2019-06-07 03:00:00 -- 8 Oeste 23 Oeste 0 -- -- 30
2019-06-07 02:00:00 -- 10 Oeste 28 Oeste 0 -- -- 30
2019-06-07 01:00:00 -- 15 Oeste 31 Oeste 0 -- -- 30
2019-06-07 00:00:00 -- 18 Oeste 33 Oeste 0 -- -- 29
2019-06-06 23:00:00 -- 11 Noroeste 27 Noroeste 0 -- -- 23
2019-06-06 22:00:00 -- 10 Noroeste 31 Oeste 0 -- -- 19
2019-06-06 21:00:00 -- 17 Oeste 38 Sudoeste 0 -- -- 24
2019-06-06 20:00:00 -- 19 Oeste 31 Oeste 0 -- -- 26
2019-06-06 19:00:00 -- 16 Oeste 28 Oeste 0 -- -- 28
2019-06-06 18:00:00 -- 17 Oeste 27 Oeste 0 -- -- 27
2019-06-06 17:00:00 -- 17 Oeste 29 Oeste 0 -- -- 27
2019-06-06 16:00:00 -- 10 Oeste 24 Oeste 0 -- -- 28
2019-06-06 15:00:00 -- 12 Sur 25 Sur 0 -- -- 43
2019-06-06 14:00:00 -- 10 Norte 20 Oeste 0 -- -- 53
2019-06-06 13:00:00 -- 12 Sudeste 18 Sudeste 0 -- -- 55
2019-06-06 12:00:00 -- 8 Este 21 Este 0 -- -- 51
2019-06-06 11:00:00 -- 11 Sudeste 15 Sudeste 0 -- -- 45
2019-06-06 10:00:00 -- 4 Este 9 Este 0 -- -- 43
2019-06-06 09:00:00 -- 5 Sudeste 8 Sudeste 0 -- -- 54
2019-06-06 08:00:00 -- 5 Sudeste 13 Sudeste 0 -- -- 52
2019-06-06 07:00:00 -- 0 Calma 9 Sur 0 -- -- 43
2019-06-06 06:00:00 -- 3 Oeste 8 Oeste 0 -- -- 41
2019-06-06 05:00:00 -- 0 Calma 7 Noroeste 0 -- -- 41
2019-06-06 04:00:00 -- 0 Calma 4 Sudoeste 0 -- -- 40
2019-06-06 03:00:00 -- 2 Sur 6 Oeste 0 -- -- 40
2019-06-06 02:00:00 -- 4 Oeste 8 Sudoeste 0 -- -- 44
2019-06-06 01:00:00 -- 5 Sudoeste 15 Sur 0 -- -- 45
2019-06-06 00:00:00 -- 4 Sur 14 Sur 0 -- -- 54
2019-06-05 23:00:00 -- 4 Sur 32 Oeste 0 -- -- 45
2019-06-05 22:00:00 -- 22 Oeste 44 Oeste 0 -- -- 32
2019-06-05 21:00:00 -- 28 Oeste 50 Oeste 0 -- -- 33
2019-06-05 20:00:00 -- 33 Oeste 48 Oeste 0 -- -- 39
2019-06-05 19:00:00 -- 30 Oeste 60 Oeste 0 -- -- 36
2019-06-05 18:00:00 -- 40 Oeste 65 Oeste 0 -- -- 52
2019-06-05 17:00:00 -- 38 Oeste 69 Oeste 0 -- -- 51
2019-06-05 16:00:00 -- 39 Oeste 64 Oeste 0 -- -- 50
2019-06-05 15:00:00 -- 28 Sudoeste 50 Sudoeste 0 -- -- 47
2019-06-05 14:00:00 -- 23 Oeste 52 Oeste 0 -- -- 34
2019-06-05 13:00:00 -- 31 Oeste 51 Oeste 0 -- -- 35
2019-06-05 12:00:00 -- 27 Oeste 56 Oeste 0 -- -- 35
2019-06-05 11:00:00 -- 28 Oeste 54 Oeste 0 -- -- 29
2019-06-05 10:00:00 -- 32 Noroeste 60 Noroeste 0 -- -- 37
2019-06-05 09:00:00 -- 39 Noroeste 68 Noroeste 0 -- -- 44
2019-06-05 08:00:00 -- 40 Noroeste 58 Noroeste 0 -- -- 47
2019-06-05 07:00:00 -- 26 Noroeste 47 Oeste 0 -- -- 58
2019-06-05 06:00:00 -- 28 Oeste 48 Oeste 0 -- -- 64
2019-06-05 05:00:00 -- 24 Oeste 36 Oeste 0 -- -- 60
2019-06-05 04:00:00 -- 18 Oeste 35 Oeste 0 -- -- 60
2019-06-05 03:00:00 -- 22 Oeste 31 Oeste 0 -- -- 60
2019-06-05 02:00:00 -- 17 Oeste 36 Oeste 0 -- -- 45
2019-06-05 01:00:00 -- 21 Oeste 39 Oeste 0 -- -- 59
2019-06-05 00:00:00 -- 3 Sur 17 Noroeste 0 -- -- 59
2019-06-04 23:00:00 -- 12 Noroeste 21 Oeste 0 -- -- 43
2019-06-04 22:00:00 -- 12 Oeste 33 Oeste 0 -- -- 45
2019-06-04 21:00:00 -- 10 Noroeste 48 Oeste 0 -- -- 46
2019-06-04 20:00:00 -- 31 Oeste 53 Oeste 0 -- -- 46
2019-06-04 19:00:00 -- 32 Oeste 50 Oeste 0 -- -- 44
2019-06-04 18:00:00 -- 27 Oeste 49 Oeste 0 -- -- 21
2019-06-04 17:00:00 -- 16 Noroeste 33 Noroeste 0 -- -- 21
2019-06-04 16:00:00 -- 10 Este 19 Sudeste 0 -- -- 43
2019-06-04 15:00:00 -- 7 Este 18 Este 0 -- -- 51
2019-06-04 14:00:00 -- 9 Nordeste 19 Nordeste 0 -- -- 62
2019-06-04 13:00:00 -- 8 Nordeste 17 Este 0 -- -- 59
2019-06-04 12:00:00 -- 10 Este 15 Sudeste 0 -- -- 46
2019-06-04 11:00:00 -- 8 Este 13 Este 0 -- -- 44
2019-06-04 10:00:00 -- 7 Este 14 Sudeste 0 -- -- 48
2019-06-04 09:00:00 -- 4 Noroeste 8 Sudeste 0 -- -- 46
2019-06-04 08:00:00 -- 5 Sudeste 8 Sudeste 0 -- -- 49
2019-06-04 07:00:00 -- 3 Sudeste 9 Oeste 0 -- -- 53
2019-06-04 06:00:00 -- 0 Calma 9 Sudeste 0 -- -- 51
2019-06-04 05:00:00 -- 3 Oeste 6 Oeste 0 -- -- 50
2019-06-04 04:00:00 -- 4 Sur 8 Oeste 0 -- -- 51
2019-06-04 03:00:00 -- 6 Oeste 9 Oeste 0 -- -- 59
2019-06-04 02:00:00 -- 0 Calma 5 Sudoeste 0 -- -- 63
2019-06-04 01:00:00 -- 3 Oeste 5 Oeste 0 -- -- 61
2019-06-04 00:00:00 -- 0 Calma 9 Oeste 0 -- -- 59
2019-06-03 23:00:00 -- 5 Oeste 8 Oeste 0 -- -- 61
2019-06-03 22:00:00 -- 0 Calma 5 Oeste 0 -- -- 58
2019-06-03 21:00:00 -- 3 Noroeste 5 Nordeste 0 -- -- 47
2019-06-03 20:00:00 -- 4 Nordeste 14 Sudeste 0 -- -- 48
2019-06-03 19:00:00 -- 4 Sudeste 11 Sudeste 0 -- -- 54
2019-06-03 18:00:00 -- 9 Sudeste 15 Sudeste 0 -- -- 55
2019-06-03 17:00:00 -- 9 Sudeste 14 Este 0 -- -- 65
2019-06-03 16:00:00 -- 10 Este 18 Este 0 -- -- 67
2019-06-03 15:00:00 -- 9 Este 20 Sudeste 0 -- -- 67
2019-06-03 14:00:00 -- 12 Este 20 Este 0 -- -- 66
2019-06-03 13:00:00 -- 9 Sudeste 18 Sudeste 0 -- -- 59
2019-06-03 12:00:00 -- 11 Sudeste 19 Sudeste 0 -- -- 65
2019-06-03 11:00:00 -- 13 Sudeste 18 Sudeste 0 -- -- 59
2019-06-03 10:00:00 -- 6 Este 13 Nordeste 0 -- -- 46
2019-06-03 09:00:00 -- 3 Este 6 Este 0 -- -- 46
2019-06-03 08:00:00 -- 0 Calma 3 Sudoeste 0 -- -- 53
2019-06-03 07:00:00 -- 2 Sudoeste 6 Oeste 0 -- -- 58
2019-06-03 06:00:00 -- 6 Oeste 8 Oeste 0 -- -- 60
2019-06-03 05:00:00 -- 0 Calma 4 Sudoeste 0 -- -- 60
2019-06-03 04:00:00 -- 0 Calma 5 Sur 0 -- -- 58
2019-06-03 03:00:00 -- 4 Sur 6 Sudoeste 0 -- -- 57
2019-06-03 02:00:00 -- 5 Sur 6 Sudoeste 0 -- -- 57
2019-06-03 01:00:00 -- 0 Calma 4 Sudoeste 0 -- -- 56
2019-06-03 00:00:00 -- 4 Oeste 7 Oeste 0 -- -- 55
2019-06-02 23:00:00 -- 3 Oeste 5 Sudoeste 0 -- -- 55
2019-06-02 22:00:00 -- 4 Sur 7 Sur 0 -- -- 50
2019-06-02 21:00:00 -- 3 Sur 6 Sudeste 0 -- -- 49
2019-06-02 20:00:00 -- 4 Sudeste 11 Sudeste 0 -- -- 46
2019-06-02 19:00:00 -- 7 Sudeste 14 Sudeste 0 -- -- 43
2019-06-02 18:00:00 -- 8 Sudeste 16 Este 0 -- -- 42
2019-06-02 17:00:00 -- 10 Sudeste 19 Sudeste 0 -- -- 42
2019-06-02 16:00:00 -- 13 Sudeste 22 Sudeste 0 -- -- 36
2019-06-02 15:00:00 -- 10 Este 22 Sudeste 0 -- -- 34
2019-06-02 14:00:00 -- 12 Sudeste 22 Sudeste 0 -- -- 34
2019-06-02 13:00:00 -- 10 Sudeste 19 Este 0 -- -- 32
2019-06-02 12:00:00 -- 13 Este 20 Sudeste 0 -- -- 32
2019-06-02 11:00:00 -- 12 Sudeste 17 Sudeste 0 -- -- 38
2019-06-02 10:00:00 -- 8 Sudeste 14 Sudeste 0 -- -- 38
2019-06-02 09:00:00 -- 4 Nordeste 7 Este 0 -- -- 39
2019-06-02 08:00:00 -- 0 Calma 2 Oeste 0 -- -- 49
2019-06-02 07:00:00 -- 0 Calma 4 Sur 0 -- -- 52
2019-06-02 06:00:00 -- 3 Oeste 13 Oeste 0 -- -- 50
2019-06-02 05:00:00 -- 6 Oeste 9 Oeste 0 -- -- 57
2019-06-02 04:00:00 -- 2 Oeste 7 Sur 0 -- -- 56
2019-06-02 03:00:00 -- 2 Sudoeste 7 Sudoeste 0 -- -- 59
2019-06-02 02:00:00 -- 6 Sudoeste 8 Sur 0 -- -- 59
2019-06-02 01:00:00 -- 2 Sudoeste 7 Sudoeste 0 -- -- 60
2019-06-02 00:00:00 -- 0 Calma 3 Oeste 0 -- -- 61
2019-06-01 23:00:00 -- 0 Calma 7 Sur 0 -- -- 64
2019-06-01 22:00:00 -- 5 Sur 8 Sur 0 -- -- 67
2019-06-01 21:00:00 -- 3 Sudeste 9 Este 0 -- -- 61
2019-06-01 20:00:00 -- 8 Sudeste 18 Sudeste 0 -- -- 54
2019-06-01 19:00:00 -- 6 Este 15 Sudeste 0 -- -- 49
2019-06-01 18:00:00 -- 10 Sudeste 18 Sudeste 0 -- -- 48
2019-06-01 17:00:00 -- 10 Sudeste 24 Sudeste 0 -- -- 44
2019-06-01 16:00:00 -- 11 Sudeste 25 Sudeste 0 -- -- 43
2019-06-01 15:00:00 -- 14 Sudeste 25 Este 0 -- -- 42
2019-06-01 14:00:00 -- 12 Este 28 Este 0 -- -- 36
2019-06-01 13:00:00 -- 14 Este 27 Sudeste 0 -- -- 38
2019-06-01 12:00:00 -- 13 Sudeste 27 Sudeste 0 -- -- 39
2019-06-01 11:00:00 -- 12 Sudeste 18 Este 0 -- -- 39
2019-06-01 10:00:00 -- 10 Este 18 Este 0 -- -- 42
2019-06-01 09:00:00 -- 8 Este 17 Sudeste 0 -- -- 52
2019-06-01 08:00:00 -- 0 Calma 8 Oeste 0 -- -- 66
2019-06-01 07:00:00 -- 2 Sudoeste 5 Sudoeste 0 -- -- 78
2019-06-01 06:00:00 -- 3 Sudoeste 7 Oeste 0 -- -- 78
2019-06-01 05:00:00 -- 0 Calma 4 Oeste 0 -- -- 79
2019-06-01 04:00:00 -- 4 Sur 14 Sudoeste 0 -- -- 77
2019-06-01 03:00:00 -- 10 Sudoeste 24 Sudoeste 0 -- -- 77
2019-06-01 02:00:00 -- 11 Sudoeste 23 Sudoeste 0 -- -- 66
2019-06-01 01:00:00 -- 3 Sur 6 Sur 0 -- -- 75
2019-06-01 00:00:00 -- 4 Sur 10 Sudeste 0 -- -- 71
2019-05-31 23:00:00 -- 5 Sudeste 10 Sudeste 0 -- -- 71
2019-05-31 22:00:00 -- 0 Calma 9 Noroeste 0 -- -- 77
2019-05-31 21:00:00 -- 6 Sur 19 Sudeste 0 -- -- 80
2019-05-31 20:00:00 -- 13 Sudeste 22 Este 0 -- -- 72
2019-05-31 19:00:00 -- 14 Sudeste 23 Sudeste 0 -- -- 63
2019-05-31 18:00:00 -- 13 Sudeste 23 Este 0 -- -- 59
2019-05-31 17:00:00 -- 12 Este 24 Sudeste 0 -- -- 59
2019-05-31 16:00:00 -- 12 Este 31 Sudeste 0 -- -- 57
2019-05-31 15:00:00 -- 20 Este 34 Sudeste 0 -- -- 60
2019-05-31 14:00:00 -- 18 Este 37 Sudeste 0 -- -- 61
2019-05-31 13:00:00 -- 21 Este 32 Este 0 -- -- 58
2019-05-31 12:00:00 -- 22 Este 32 Este 0 -- -- 55
2019-05-31 11:00:00 -- 13 Este 24 Este 0 -- -- 56
2019-05-31 10:00:00 -- 9 Sudeste 14 Sudeste 0 -- -- 57
2019-05-31 09:00:00 -- 6 Sudeste 14 Sudeste 0 -- -- 52
2019-05-31 08:00:00 -- 3 Nordeste 9 Sudoeste 0 -- -- 60
2019-05-31 07:00:00 -- 0 Calma 10 Sudeste 0 -- -- 68
2019-05-31 06:00:00 -- 6 Sur 12 Sudeste 0 -- -- 67
2019-05-31 05:00:00 -- 7 Sur 12 Sur 0 -- -- 70
2019-05-31 04:00:00 -- 5 Sur 9 Sur 0 -- -- 67
2019-05-31 03:00:00 -- 4 Sur 8 Sudeste 0 -- -- 71
2019-05-31 02:00:00 -- 4 Sudoeste 9 Sur 0 -- -- 73
2019-05-31 01:00:00 -- 4 Oeste 10 Este 0 -- -- 82
2019-05-31 00:00:00 -- 5 Sudeste 11 Sudeste 0 -- -- 80
2019-05-30 23:00:00 -- 5 Sudeste 17 Sudeste 0 -- -- 85
2019-05-30 22:00:00 -- 9 Sudeste 19 Sudeste 0 -- -- 81
2019-05-30 21:00:00 -- 8 Sudeste 15 Sudeste 0 -- -- 75
2019-05-30 20:00:00 -- 12 Sudeste 23 Este 0 -- -- 66
2019-05-30 19:00:00 -- 12 Este 21 Este 0 -- -- 63
2019-05-30 18:00:00 -- 15 Este 25 Este 0 -- -- 60
2019-05-30 17:00:00 -- 17 Este 32 Sudeste 0 -- -- 61
2019-05-30 16:00:00 -- 21 Este 32 Sudeste 0 -- -- 57
2019-05-30 15:00:00 -- 19 Este 32 Sudeste 0 -- -- 55
2019-05-30 14:00:00 -- 20 Este 35 Este 0 -- -- 56
2019-05-30 13:00:00 -- 19 Este 30 Este 0 -- -- 60
2019-05-30 12:00:00 -- 19 Este 28 Sudeste 0 -- -- 58
2019-05-30 11:00:00 -- 13 Este 21 Este 0 -- -- 56
2019-05-30 10:00:00 -- 14 Sudeste 22 Sudeste 0 -- -- 65
2019-05-30 09:00:00 -- 8 Este 17 Sudeste 0 -- -- 60
2019-05-30 08:00:00 -- 0 Calma 5 Sur 0 -- -- 68
2019-05-30 07:00:00 -- 2 Sur 7 Sudeste 0 -- -- 74
2019-05-30 06:00:00 -- 0 Calma 11 Oeste 0 -- -- 70
2019-05-30 05:00:00 -- 3 Noroeste 6 Oeste 0 -- -- 81
2019-05-30 04:00:00 -- 0 Calma 7 Sur 0 -- -- 77
2019-05-30 03:00:00 -- 0 Calma 5 Sudeste 0 -- -- 75
2019-05-30 02:00:00 -- 3 Sudeste 9 Sudeste 0 -- -- 78
2019-05-30 01:00:00 -- 6 Sudeste 13 Este 0 -- -- 79
2019-05-30 00:00:00 -- 4 Este 12 Este 0 -- -- 84
2019-05-29 23:00:00 -- 9 Sudeste 19 Sudeste 0 -- -- 88
2019-05-29 22:00:00 -- 12 Este 21 Este 0 -- -- 86
2019-05-29 21:00:00 -- 14 Este 22 Este 0 -- -- 83
2019-05-29 20:00:00 -- 14 Este 21 Sudeste 0 -- -- 80
2019-05-29 19:00:00 -- 11 Este 21 Este 0 -- -- 69
2019-05-29 18:00:00 -- 12 Este 26 Este 0 -- -- 68
2019-05-29 17:00:00 -- 10 Este 22 Sudeste 0 -- -- 75
2019-05-29 16:00:00 -- 12 Este 24 Este 0 -- -- 68
2019-05-29 15:00:00 -- 13 Este 23 Este 0 -- -- 72
2019-05-29 14:00:00 -- 12 Sudeste 24 Sudeste 0 -- -- 70
2019-05-29 13:00:00 -- 12 Este 31 Nordeste 0 -- -- 59
2019-05-29 12:00:00 -- 18 Sudeste 28 Sudeste 0 -- -- 59
2019-05-29 11:00:00 -- 11 Sudeste 20 Este 0 -- -- 56
2019-05-29 10:00:00 -- 7 Sudeste 13 Sudeste 0 -- -- 62
2019-05-29 09:00:00 -- 4 Este 12 Este 0 -- -- 67
2019-05-29 08:00:00 -- 4 Norte 13 Oeste 0 -- -- 78
2019-05-29 07:00:00 -- 4 Noroeste 9 Oeste 0 -- -- 86
2019-05-29 06:00:00 -- 0 Calma 17 Este 0 -- -- 86
2019-05-29 05:00:00 -- 7 Este 17 Este 0 -- -- 88
2019-05-29 04:00:00 -- 3 Sudeste 16 Sudeste 0 -- -- 87
2019-05-29 03:00:00 -- 5 Sudeste 8 Sudeste 0 -- -- 90
2019-05-29 02:00:00 -- 5 Sur 11 Este 0 -- -- 87
2019-05-29 01:00:00 -- 4 Este 9 Este 0 -- -- 81
2019-05-29 00:00:00 -- 3 Este 9 Sudeste 0 -- -- 81
2019-05-28 23:00:00 -- 2 Sur 4 Sudeste 0 -- -- 81
2019-05-28 22:00:00 -- 4 Sur 6 Sur 0 -- -- 84
2019-05-28 21:00:00 -- 3 Sudeste 9 Sudeste 0 -- -- 85
2019-05-28 20:00:00 -- 6 Sudeste 10 Este 0 -- -- 77
2019-05-28 19:00:00 -- 8 Sudeste 13 Sudeste 0 -- -- 70
2019-05-28 18:00:00 -- 8 Sudeste 17 Sudeste 0 -- -- 63
2019-05-28 17:00:00 -- 10 Sudeste 18 Sudeste 0 -- -- 61
2019-05-28 16:00:00 -- 10 Sudeste 19 Sudeste 0 -- -- 58
2019-05-28 15:00:00 -- 11 Sudeste 18 Sudeste 0 -- -- 53
2019-05-28 14:00:00 -- 9 Sudeste 18 Sudeste 0 -- -- 58
2019-05-28 13:00:00 -- 10 Este 19 Sudeste 0 -- -- 60
2019-05-28 12:00:00 -- 10 Sudeste 16 Este 0 -- -- 59
2019-05-28 11:00:00 -- 11 Sudeste 16 Sudeste 0 -- -- 60
2019-05-28 10:00:00 -- 8 Este 14 Este 0 -- -- 57
2019-05-28 09:00:00 -- 4 Este 7 Este 0 -- -- 50
2019-05-28 08:00:00 -- 2 Sudeste 4 Sudeste 0 -- -- 59
2019-05-28 07:00:00 -- 3 Sur 5 Sudoeste 0 -- -- 66
2019-05-28 06:00:00 -- 0 Calma 5 Sudoeste 0 -- -- 68
2019-05-28 05:00:00 -- 3 Sur 8 Oeste 0 -- -- 80
2019-05-28 04:00:00 -- 2 Sur 6 Sur 0 -- -- 74
2019-05-28 03:00:00 -- 2 Este 13 Sudeste 0 -- -- 71
2019-05-28 02:00:00 -- 11 Sur 14 Sur 0 -- -- 71
2019-05-28 01:00:00 -- 0 Calma 7 Oeste 0 -- -- 67
2019-05-28 00:00:00 -- 0 Calma 7 Sudeste 0 -- -- 65
2019-05-27 23:00:00 -- 4 Sur 8 Sudeste 0 -- -- 67
2019-05-27 22:00:00 -- 3 Norte 10 Sur 0 -- -- 64
2019-05-27 21:00:00 -- 4 Sudeste 8 Este 0 -- -- 61
2019-05-27 20:00:00 -- 2 Noroeste 7 Este 0 -- -- 58
2019-05-27 19:00:00 -- 3 Este 9 Sudeste 0 -- -- 56
2019-05-27 18:00:00 -- 5 Este 12 Sudeste 0 -- -- 51
2019-05-27 17:00:00 -- 8 Este 15 Nordeste 0 -- -- 44
2019-05-27 16:00:00 -- 7 Este 17 Nordeste 0 -- -- 45
2019-05-27 15:00:00 -- 8 Norte 16 Este 0 -- -- 50
2019-05-27 14:00:00 -- 9 Nordeste 15 Nordeste 0 -- -- 61
2019-05-27 13:00:00 -- 8 Nordeste 14 Este 0 -- -- 64
2019-05-27 12:00:00 -- 10 Este 15 Sudeste 0 -- -- 57
2019-05-27 11:00:00 -- 10 Este 16 Este 0 -- -- 64
2019-05-27 10:00:00 -- 8 Este 13 Nordeste 0 -- -- 54
2019-05-27 09:00:00 -- 4 Este 6 Este 0 -- -- 49
2019-05-27 08:00:00 -- 0 Calma 6 Sur 0 -- -- 56
2019-05-27 07:00:00 -- 0 Calma 4 Sudoeste 0 -- -- 60
2019-05-27 06:00:00 -- 0 Calma 5 Sudoeste 0 -- -- 61
2019-05-27 05:00:00 -- 3 Sudoeste 10 Sudeste 0 -- -- 53
2019-05-27 04:00:00 -- 5 Oeste 8 Oeste 0 -- -- 52
2019-05-27 03:00:00 -- 4 Oeste 12 Oeste 0 -- -- 51
2019-05-27 02:00:00 -- 0 Calma 9 Oeste 0 -- -- 54
2019-05-27 01:00:00 -- 3 Sudoeste 6 Sudoeste 0 -- -- 50
2019-05-27 00:00:00 -- 4 Oeste 7 Oeste 0 -- -- 49
2019-05-26 23:00:00 -- 3 Oeste 8 Oeste 0 -- -- 56
2019-05-26 22:00:00 -- 0 Calma 6 Noroeste 0 -- -- 69
2019-05-26 21:00:00 -- 0 Calma 8 Este 0 -- -- 75
2019-05-26 20:00:00 -- 3 Sudeste 13 Este 0 -- -- 75
2019-05-26 19:00:00 -- 5 Este 14 Nordeste 0 -- -- 66
2019-05-26 18:00:00 -- 8 Este 16 Este 0 -- -- 63
2019-05-26 17:00:00 -- 8 Nordeste 21 Sudoeste 0 -- -- 59
2019-05-26 16:00:00 -- 13 Oeste 23 Sudoeste 0 -- -- 51
2019-05-26 15:00:00 -- 11 Sudoeste 24 Oeste 0 -- -- 54
2019-05-26 14:00:00 -- 10 Oeste 26 Este 0 -- -- 54
2019-05-26 13:00:00 -- 6 Sudoeste 22 Sur 0 -- -- 49
2019-05-26 12:00:00 -- 9 Sudoeste 26 Oeste 0 -- -- 50
2019-05-26 11:00:00 -- 9 Nordeste 15 Este 0 -- -- 53
2019-05-26 10:00:00 -- 6 Este 11 Este 0 -- -- 58
2019-05-26 09:00:00 -- 4 Este 7 Nordeste 0 -- -- 59
2019-05-26 08:00:00 -- 0 Calma 6 Sudoeste 0 -- -- 73
2019-05-26 07:00:00 -- 2 Oeste 9 Oeste 0 -- -- 77
2019-05-26 06:00:00 -- 6 Oeste 6 Oeste 0 -- -- 81
2019-05-26 05:00:00 -- 3 Sur 5 Sudeste 0 -- -- 76
2019-05-26 04:00:00 -- 0 Calma 9 Oeste 0 -- -- 70
2019-05-26 03:00:00 -- 8 Oeste 11 Oeste 0 -- -- 77
2019-05-26 02:00:00 -- 4 Sur 9 Oeste 0 -- -- 75
2019-05-26 01:00:00 -- 5 Oeste 7 Oeste 0 -- -- 84
2019-05-26 00:00:00 -- 2 Sur 5 Sudeste 0 -- -- 83
2019-05-25 23:00:00 -- 3 Oeste 6 Oeste 0 -- -- 77
2019-05-25 22:00:00 -- 3 Sudeste 6 Sudeste 0 -- -- 76
2019-05-25 21:00:00 -- 5 Este 12 Sudeste 0 -- -- 78
2019-05-25 20:00:00 -- 9 Sudeste 19 Sudeste 0 -- -- 76
2019-05-25 19:00:00 -- 9 Sudeste 22 Sudeste 0 -- -- 69
2019-05-25 18:00:00 -- 11 Sudeste 23 Sudeste 0 -- -- 49
2019-05-25 17:00:00 -- 10 Sudeste 22 Sudeste 0 -- -- 51
2019-05-25 16:00:00 -- 12 Sudeste 21 Sudeste 0 -- -- 56
2019-05-25 15:00:00 -- 13 Sudeste 26 Sudeste 0 -- -- 55
2019-05-25 14:00:00 -- 14 Sudeste 26 Sudeste 0 -- -- 52
2019-05-25 13:00:00 -- 10 Sudeste 23 Sudeste 0 -- -- 46
2019-05-25 12:00:00 -- 10 Sudeste 22 Sudeste 0 -- -- 42
2019-05-25 11:00:00 -- 8 Sudeste 20 Sudeste 0 -- -- 47
2019-05-25 10:00:00 -- 6 Sudoeste 14 Sudoeste 0 -- -- 49
2019-05-25 09:00:00 -- 2 Este 13 Sudoeste 0 -- -- 66
2019-05-25 08:00:00 -- 3 Noroeste 10 Sudeste 0 -- -- 75
2019-05-25 07:00:00 -- 5 Sudeste 9 Oeste 0 -- -- 70
2019-05-25 06:00:00 -- 8 Oeste 11 Sudeste 0 -- -- 65
2019-05-25 05:00:00 -- 4 Sur 10 Sur 0 -- -- 76
2019-05-25 04:00:00 -- 0 Calma 5 Oeste 0 -- -- 81
2019-05-25 03:00:00 -- 3 Nordeste 15 Sudoeste 0 -- -- 83
2019-05-25 02:00:00 -- 6 Sur 12 Sur 0 -- -- 82
2019-05-25 01:00:00 -- 6 Sudeste 16 Sur 0 -- -- 85
2019-05-25 00:00:00 -- 9 Sudeste 14 Sudeste 0 -- -- 88
2019-05-24 23:00:00 -- 8 Este 15 Este 0 -- -- 88
2019-05-24 22:00:00 -- 8 Nordeste 18 Este 0 -- -- 79
2019-05-24 21:00:00 -- 4 Este 18 Este 0 -- -- 80
2019-05-24 20:00:00 -- 16 Sudeste 31 Sudeste 0 -- -- 75
2019-05-24 19:00:00 -- 8 Oeste 31 Oeste 0 -- -- 31
2019-05-24 18:00:00 -- 15 Oeste 34 Oeste 0 -- -- 30
2019-05-24 17:00:00 -- 22 Oeste 46 Oeste 0 -- -- 41
2019-05-24 16:00:00 -- 30 Oeste 48 Oeste 0 -- -- 39
2019-05-24 15:00:00 -- 29 Oeste 44 Oeste 0 -- -- 33
2019-05-24 14:00:00 -- 17 Oeste 30 Oeste 0 -- -- 32
2019-05-24 13:00:00 -- 9 Nordeste 17 Nordeste 0 -- -- 38
2019-05-24 12:00:00 -- 4 Este 8 Este 0 -- -- 41
2019-05-24 11:00:00 -- 3 Este 7 Este 0 -- -- 39
2019-05-24 10:00:00 -- 0 Calma 5 Oeste 0 -- -- 45
2019-05-24 09:00:00 -- 4 Oeste 6 Sur 0 -- -- 40
2019-05-24 08:00:00 -- 3 Sur 6 Sudoeste 0 -- -- 41
2019-05-24 07:00:00 -- 2 Sur 7 Sudoeste 0 -- -- 40
2019-05-24 06:00:00 -- 0 Calma 6 Sudeste 0 -- -- 40
2019-05-24 05:00:00 -- 0 Calma 5 Oeste 0 -- -- 36
2019-05-24 04:00:00 -- 0 Calma 4 Oeste 0 -- -- 38
2019-05-24 03:00:00 -- 3 Oeste 4 Oeste 0 -- -- 37
2019-05-24 02:00:00 -- 2 Sur 5 Sur 0 -- -- 39
2019-05-24 01:00:00 -- 0 Calma 5 Oeste 0 -- -- 36
2019-05-24 00:00:00 -- 0 Calma 5 Oeste 0 -- -- 39
2019-05-23 23:00:00 -- 0 Calma 4 Sudoeste 0 -- -- 39
2019-05-23 22:00:00 -- 0 Calma 4 Noroeste 0 -- -- 42
2019-05-23 21:00:00 -- 0 Calma 4 Nordeste 0 -- -- 41
2019-05-23 20:00:00 -- 0 Calma 5 Este 0 -- -- 37
2019-05-23 19:00:00 -- 2 Sudeste 9 Sudeste 0 -- -- 35
2019-05-23 18:00:00 -- 8 Sudeste 13 Sudeste 0 -- -- 32
2019-05-23 17:00:00 -- 8 Este 17 Sudeste 0 -- -- 31
2019-05-23 16:00:00 -- 10 Este 21 Sudeste 0 -- -- 29
2019-05-23 15:00:00 -- 11 Sudeste 19 Sudeste 0 -- -- 38
2019-05-23 14:00:00 -- 10 Sudeste 21 Sudeste 0 -- -- 41
2019-05-23 13:00:00 -- 12 Sudeste 18 Sudeste 0 -- -- 29
2019-05-23 12:00:00 -- 15 Sudeste 22 Sudeste 0 -- -- 31
2019-05-23 11:00:00 -- 11 Sudeste 14 Sudeste 0 -- -- 31
2019-05-23 10:00:00 -- 5 Este 10 Este 0 -- -- 31
2019-05-23 09:00:00 -- 3 Nordeste 6 Este 0 -- -- 33
2019-05-23 08:00:00 -- 0 Calma 4 Sur 0 -- -- 38
2019-05-23 07:00:00 -- 3 Sudoeste 5 Oeste 0 -- -- 51
2019-05-23 06:00:00 -- 0 Calma 5 Oeste 0 -- -- 51
2019-05-23 05:00:00 -- 4 Oeste 8 Noroeste 0 -- -- 49
2019-05-23 04:00:00 -- 2 Oeste 8 Sur 0 -- -- 52
2019-05-23 03:00:00 -- 3 Sudoeste 6 Sudoeste 0 -- -- 48
2019-05-23 02:00:00 -- 3 Sur 5 Sur 0 -- -- 54
2019-05-23 01:00:00 -- 2 Sur 6 Sur 0 -- -- 59
2019-05-23 00:00:00 -- 2 Sur 5 Sudoeste 0 -- -- 59
2019-05-22 23:00:00 -- 0 Calma 9 Oeste 0 -- -- 68
2019-05-22 22:00:00 -- 3 Sur 9 Sur 0 -- -- 64
2019-05-22 21:00:00 -- 6 Sur 14 Sudeste 0 -- -- 59
2019-05-22 20:00:00 -- 5 Sudeste 12 Sudeste 0 -- -- 64
2019-05-22 19:00:00 -- 3 Sudeste 14 Sudeste 0 -- -- 56
2019-05-22 18:00:00 -- 6 Sudeste 15 Sudeste 0 -- -- 47
2019-05-22 17:00:00 -- 9 Sudeste 17 Este 0 -- -- 47
2019-05-22 16:00:00 -- 10 Sudeste 18 Sudeste 0 -- -- 55
2019-05-22 15:00:00 -- 12 Este 18 Sudeste 0 -- -- 57
2019-05-22 14:00:00 -- 12 Este 18 Este 0 -- -- 60
2019-05-22 13:00:00 -- 9 Este 19 Este 0 -- -- 64
2019-05-22 12:00:00 -- 10 Sudeste 18 Sudeste 0 -- -- 69
2019-05-22 11:00:00 -- 10 Este 16 Sudeste 0 -- -- 67
2019-05-22 10:00:00 -- 8 Sudeste 14 Sudeste 0 -- -- 61
2019-05-22 09:00:00 -- 8 Sudeste 10 Sudeste 0 -- -- 66
2019-05-22 08:00:00 -- 4 Oeste 9 Oeste 0 -- -- 74
2019-05-22 07:00:00 -- 6 Oeste 12 Noroeste 0 -- -- 83
2019-05-22 06:00:00 -- 5 Oeste 7 Oeste 0 -- -- 90
2019-05-22 05:00:00 -- 0 Calma 8 Sur 0 -- -- 90
2019-05-22 04:00:00 -- 2 Oeste 5 Sudeste 0 -- -- 91
2019-05-22 03:00:00 -- 3 Sudeste 6 Sudeste 0 -- -- 89
2019-05-22 02:00:00 -- 0 Calma 7 Sudeste 0 -- -- 89
2019-05-22 01:00:00 -- 3 Sudeste 9 Sudeste 0 -- -- 88
2019-05-22 00:00:00 -- 4 Sudeste 13 Sur 0 -- -- 89